sensor_id;sensor_type;location;lat;lon;timestamp;temperature;humidity
40952;DHT22;26682;51.660;19.338;2023-04-01T00:02:29;8.80;99.90
40952;DHT22;26682;51.660;19.338;2023-04-01T00:05:11;8.80;99.90
40952;DHT22;26682;51.660;19.338;2023-04-01T00:07:54;8.80;99.90
40952;DHT22;26682;51.660;19.338;2023-04-01T00:10:36;8.80;99.90
40952;DHT22;26682;51.660;19.338;2023-04-01T00:13:19;8.90;99.90
40952;DHT22;26682;51.660;19.338;2023-04-01T00:16:02;8.90;99.90
40952;DHT22;26682;51.660;19.338;2023-04-01T00:18:51;8.90;99.90
40952;DHT22;26682;51.660;19.338;2023-04-01T00:21:33;8.90;99.90
40952;DHT22;26682;51.660;19.338;2023-04-01T00:24:16;8.90;99.90
40952;DHT22;26682;51.660;19.338;2023-04-01T00:26:58;8.90;99.90
40952;DHT22;26682;51.660;19.338;2023-04-01T00:29:44;8.90;99.90
40952;DHT22;26682;51.660;19.338;2023-04-01T00:32:27;8.90;99.90
40952;DHT22;26682;51.660;19.338;2023-04-01T00:35:10;8.90;99.90
40952;DHT22;26682;51.660;19.338;2023-04-01T00:37:53;8.80;99.90
40952;DHT22;26682;51.660;19.338;2023-04-01T00:40:38;8.80;99.90
40952;DHT22;26682;51.660;19.338;2023-04-01T00:43:21;8.80;99.90
40952;DHT22;26682;51.660;19.338;2023-04-01T00:46:03;8.80;99.90
40952;DHT22;26682;51.660;19.338;2023-04-01T00:48:49;8.80;99.90
40952;DHT22;26682;51.660;19.338;2023-04-01T00:51:33;8.80;99.90
40952;DHT22;26682;51.660;19.338;2023-04-01T00:54:19;8.80;99.90
40952;DHT22;26682;51.660;19.338;2023-04-01T00:57:07;8.70;99.90
40952;DHT22;26682;51.660;19.338;2023-04-01T00:59:52;8.70;99.90
40952;DHT22;26682;51.660;19.338;2023-04-01T01:02:36;8.70;99.90
40952;DHT22;26682;51.660;19.338;2023-04-01T01:05:27;8.70;99.90
40952;DHT22;26682;51.660;19.338;2023-04-01T01:08:42;8.70;99.90
40952;DHT22;26682;51.660;19.338;2023-04-01T01:11:48;8.70;99.90
40952;DHT22;26682;51.660;19.338;2023-04-01T01:17:52;8.70;99.90
40952;DHT22;26682;51.660;19.338;2023-04-01T01:29:56;8.70;99.90
40952;DHT22;26682;51.660;19.338;2023-04-01T01:35:42;8.60;99.90
40952;DHT22;26682;51.660;19.338;2023-04-01T01:38:32;8.50;99.90
40952;DHT22;26682;51.660;19.338;2023-04-01T01:41:19;8.50;99.90
40952;DHT22;26682;51.660;19.338;2023-04-01T01:44:07;8.40;99.90
40952;DHT22;26682;51.660;19.338;2023-04-01T01:46:50;8.40;99.90
40952;DHT22;26682;51.660;19.338;2023-04-01T01:49:34;8.30;99.90
40952;DHT22;26682;51.660;19.338;2023-04-01T01:52:17;8.30;99.90
40952;DHT22;26682;51.660;19.338;2023-04-01T01:55:00;8.30;99.90
40952;DHT22;26682;51.660;19.338;2023-04-01T01:57:57;8.30;99.90
40952;DHT22;26682;51.660;19.338;2023-04-01T02:00:43;8.30;99.90
40952;DHT22;26682;51.660;19.338;2023-04-01T02:03:31;8.30;99.90
40952;DHT22;26682;51.660;19.338;2023-04-01T02:06:18;8.30;99.90
40952;DHT22;26682;51.660;19.338;2023-04-01T02:09:05;8.30;99.90
40952;DHT22;26682;51.660;19.338;2023-04-01T02:11:52;8.30;99.90
40952;DHT22;26682;51.660;19.338;2023-04-01T02:14:45;8.30;99.90
40952;DHT22;26682;51.660;19.338;2023-04-01T02:17:30;8.30;99.90
40952;DHT22;26682;51.660;19.338;2023-04-01T02:20:20;8.20;99.90
40952;DHT22;26682;51.660;19.338;2023-04-01T02:23:05;8.20;99.90
40952;DHT22;26682;51.660;19.338;2023-04-01T02:25:50;8.20;99.90
40952;DHT22;26682;51.660;19.338;2023-04-01T02:28:33;8.20;99.90
40952;DHT22;26682;51.660;19.338;2023-04-01T02:31:16;8.10;99.90
40952;DHT22;26682;51.660;19.338;2023-04-01T02:33:59;8.10;99.90
40952;DHT22;26682;51.660;19.338;2023-04-01T02:36:42;8.00;99.90
40952;DHT22;26682;51.660;19.338;2023-04-01T02:39:25;7.90;99.90
40952;DHT22;26682;51.660;19.338;2023-04-01T02:42:10;7.90;99.90
40952;DHT22;26682;51.660;19.338;2023-04-01T02:44:52;7.90;99.90
40952;DHT22;26682;51.660;19.338;2023-04-01T02:47:35;7.80;99.90
40952;DHT22;26682;51.660;19.338;2023-04-01T02:50:17;7.80;99.90
40952;DHT22;26682;51.660;19.338;2023-04-01T02:53:00;7.80;99.90
40952;DHT22;26682;51.660;19.338;2023-04-01T02:55:43;7.70;99.90
40952;DHT22;26682;51.660;19.338;2023-04-01T02:58:27;7.70;99.90
40952;DHT22;26682;51.660;19.338;2023-04-01T03:01:10;7.70;99.90
40952;DHT22;26682;51.660;19.338;2023-04-01T03:03:52;7.60;99.90
40952;DHT22;26682;51.660;19.338;2023-04-01T03:06:35;7.60;99.90
40952;DHT22;26682;51.660;19.338;2023-04-01T03:09:17;7.50;99.90
40952;DHT22;26682;51.660;19.338;2023-04-01T03:11:59;7.50;99.90
40952;DHT22;26682;51.660;19.338;2023-04-01T03:14:43;7.50;99.90
40952;DHT22;26682;51.660;19.338;2023-04-01T03:17:25;7.50;99.90
40952;DHT22;26682;51.660;19.338;2023-04-01T03:20:09;7.50;99.90
40952;DHT22;26682;51.660;19.338;2023-04-01T03:22:52;7.40;99.90
40952;DHT22;26682;51.660;19.338;2023-04-01T03:25:35;7.40;99.90
40952;DHT22;26682;51.660;19.338;2023-04-01T03:28:17;7.40;99.90
40952;DHT22;26682;51.660;19.338;2023-04-01T03:31:00;7.40;99.90
40952;DHT22;26682;51.660;19.338;2023-04-01T03:33:44;7.40;99.90
40952;DHT22;26682;51.660;19.338;2023-04-01T03:36:26;7.40;99.90
40952;DHT22;26682;51.660;19.338;2023-04-01T03:39:09;7.40;99.90
40952;DHT22;26682;51.660;19.338;2023-04-01T03:41:56;7.40;99.90
40952;DHT22;26682;51.660;19.338;2023-04-01T03:44:38;7.40;99.90
40952;DHT22;26682;51.660;19.338;2023-04-01T03:47:22;7.40;99.90
40952;DHT22;26682;51.660;19.338;2023-04-01T03:50:05;7.30;99.90
40952;DHT22;26682;51.660;19.338;2023-04-01T03:52:47;7.40;99.90
40952;DHT22;26682;51.660;19.338;2023-04-01T03:55:30;7.40;99.90
40952;DHT22;26682;51.660;19.338;2023-04-01T03:58:13;7.40;99.90
40952;DHT22;26682;51.660;19.338;2023-04-01T04:00:55;7.40;99.90
40952;DHT22;26682;51.660;19.338;2023-04-01T04:03:38;7.30;99.90
40952;DHT22;26682;51.660;19.338;2023-04-01T04:06:21;7.30;99.90
40952;DHT22;26682;51.660;19.338;2023-04-01T04:09:05;7.30;99.90
40952;DHT22;26682;51.660;19.338;2023-04-01T04:11:48;7.30;99.90
40952;DHT22;26682;51.660;19.338;2023-04-01T04:14:31;7.20;99.90
40952;DHT22;26682;51.660;19.338;2023-04-01T04:17:14;7.20;99.90
40952;DHT22;26682;51.660;19.338;2023-04-01T04:19:59;7.20;99.90
40952;DHT22;26682;51.660;19.338;2023-04-01T04:22:41;7.10;99.90
40952;DHT22;26682;51.660;19.338;2023-04-01T04:25:24;7.20;99.90
40952;DHT22;26682;51.660;19.338;2023-04-01T04:28:07;7.20;99.90
40952;DHT22;26682;51.660;19.338;2023-04-01T04:30:50;7.20;99.90
40952;DHT22;26682;51.660;19.338;2023-04-01T04:33:33;7.30;99.90
40952;DHT22;26682;51.660;19.338;2023-04-01T04:36:17;7.30;99.90
40952;DHT22;26682;51.660;19.338;2023-04-01T04:39:00;7.30;99.90
40952;DHT22;26682;51.660;19.338;2023-04-01T04:41:47;7.30;99.90
40952;DHT22;26682;51.660;19.338;2023-04-01T04:44:29;7.40;99.90
40952;DHT22;26682;51.660;19.338;2023-04-01T04:47:12;7.40;99.90
40952;DHT22;26682;51.660;19.338;2023-04-01T04:49:55;7.40;99.90
40952;DHT22;26682;51.660;19.338;2023-04-01T04:52:38;7.40;99.90
40952;DHT22;26682;51.660;19.338;2023-04-01T04:55:21;7.40;99.90
40952;DHT22;26682;51.660;19.338;2023-04-01T04:58:17;7.40;99.90
40952;DHT22;26682;51.660;19.338;2023-04-01T05:01:09;7.50;99.90
40952;DHT22;26682;51.660;19.338;2023-04-01T05:03:54;7.60;99.90
40952;DHT22;26682;51.660;19.338;2023-04-01T05:06:36;7.60;99.90
40952;DHT22;26682;51.660;19.338;2023-04-01T05:09:19;7.60;99.90
40952;DHT22;26682;51.660;19.338;2023-04-01T05:12:02;7.60;99.90
40952;DHT22;26682;51.660;19.338;2023-04-01T05:15:04;7.70;99.90
40952;DHT22;26682;51.660;19.338;2023-04-01T05:17:47;7.70;99.90
40952;DHT22;26682;51.660;19.338;2023-04-01T05:20:29;7.70;99.90
40952;DHT22;26682;51.660;19.338;2023-04-01T05:23:12;7.80;99.90
40952;DHT22;26682;51.660;19.338;2023-04-01T05:25:54;7.80;99.90
40952;DHT22;26682;51.660;19.338;2023-04-01T05:28:39;7.90;99.90
40952;DHT22;26682;51.660;19.338;2023-04-01T05:31:22;7.90;99.90
40952;DHT22;26682;51.660;19.338;2023-04-01T05:34:06;7.90;99.90
40952;DHT22;26682;51.660;19.338;2023-04-01T05:36:49;7.90;99.90
40952;DHT22;26682;51.660;19.338;2023-04-01T05:39:35;8.00;99.90
40952;DHT22;26682;51.660;19.338;2023-04-01T05:42:18;8.10;99.90
40952;DHT22;26682;51.660;19.338;2023-04-01T05:45:01;8.10;99.90
40952;DHT22;26682;51.660;19.338;2023-04-01T05:48:03;8.10;99.90
40952;DHT22;26682;51.660;19.338;2023-04-01T05:50:52;8.10;99.90
40952;DHT22;26682;51.660;19.338;2023-04-01T05:53:36;8.20;99.90
40952;DHT22;26682;51.660;19.338;2023-04-01T05:56:19;8.30;99.90
40952;DHT22;26682;51.660;19.338;2023-04-01T05:59:06;8.30;99.90
40952;DHT22;26682;51.660;19.338;2023-04-01T06:01:49;8.50;99.90
40952;DHT22;26682;51.660;19.338;2023-04-01T06:04:37;8.60;99.90
40952;DHT22;26682;51.660;19.338;2023-04-01T06:07:20;8.60;99.90
40952;DHT22;26682;51.660;19.338;2023-04-01T06:10:19;8.70;99.90
40952;DHT22;26682;51.660;19.338;2023-04-01T06:13:16;8.80;99.90
40952;DHT22;26682;51.660;19.338;2023-04-01T06:22:34;8.90;99.90
40952;DHT22;26682;51.660;19.338;2023-04-01T06:25:22;9.00;99.90
40952;DHT22;26682;51.660;19.338;2023-04-01T06:28:48;9.00;99.90
40952;DHT22;26682;51.660;19.338;2023-04-01T06:31:43;9.00;99.90
40952;DHT22;26682;51.660;19.338;2023-04-01T06:34:42;9.20;99.90
40952;DHT22;26682;51.660;19.338;2023-04-01T06:44:21;9.50;99.90
40952;DHT22;26682;51.660;19.338;2023-04-01T06:51:06;9.60;99.90
40952;DHT22;26682;51.660;19.338;2023-04-01T06:54:20;9.70;99.90
40952;DHT22;26682;51.660;19.338;2023-04-01T06:57:34;9.70;99.90
40952;DHT22;26682;51.660;19.338;2023-04-01T07:00:31;9.60;99.90
40952;DHT22;26682;51.660;19.338;2023-04-01T07:06:24;9.50;99.90
40952;DHT22;26682;51.660;19.338;2023-04-01T07:09:22;9.40;99.90
40952;DHT22;26682;51.660;19.338;2023-04-01T07:15:42;9.90;99.90
40952;DHT22;26682;51.660;19.338;2023-04-01T07:18:36;10.00;99.90
40952;DHT22;26682;51.660;19.338;2023-04-01T07:21:25;10.30;99.90
40952;DHT22;26682;51.660;19.338;2023-04-01T07:24:26;10.50;99.90
40952;DHT22;26682;51.660;19.338;2023-04-01T07:27:18;10.60;99.90
40952;DHT22;26682;51.660;19.338;2023-04-01T07:30:03;10.70;99.90
40952;DHT22;26682;51.660;19.338;2023-04-01T07:35:37;10.40;99.90
40952;DHT22;26682;51.660;19.338;2023-04-01T07:42:19;10.50;99.90
40952;DHT22;26682;51.660;19.338;2023-04-01T07:45:10;10.40;99.90
40952;DHT22;26682;51.660;19.338;2023-04-01T07:50:54;10.10;99.90
40952;DHT22;26682;51.660;19.338;2023-04-01T07:53:50;10.20;99.90
40952;DHT22;26682;51.660;19.338;2023-04-01T07:56:55;10.20;99.90
40952;DHT22;26682;51.660;19.338;2023-04-01T08:00:19;10.20;99.90
40952;DHT22;26682;51.660;19.338;2023-04-01T08:06:32;10.10;99.90
40952;DHT22;26682;51.660;19.338;2023-04-01T08:12:44;10.10;99.90
40952;DHT22;26682;51.660;19.338;2023-04-01T08:15:56;10.10;99.90
40952;DHT22;26682;51.660;19.338;2023-04-01T08:19:00;10.30;99.90
40952;DHT22;26682;51.660;19.338;2023-04-01T08:21:49;10.30;99.90
40952;DHT22;26682;51.660;19.338;2023-04-01T08:24:42;10.40;99.90
40952;DHT22;26682;51.660;19.338;2023-04-01T08:27:38;10.50;99.90
40952;DHT22;26682;51.660;19.338;2023-04-01T08:30:33;10.50;99.90
40952;DHT22;26682;51.660;19.338;2023-04-01T08:36:08;10.50;99.90
40952;DHT22;26682;51.660;19.338;2023-04-01T08:39:06;10.60;99.90
40952;DHT22;26682;51.660;19.338;2023-04-01T08:52:22;10.70;99.90
40952;DHT22;26682;51.660;19.338;2023-04-01T08:55:25;10.90;99.90
40952;DHT22;26682;51.660;19.338;2023-04-01T08:58:52;11.00;99.90
40952;DHT22;26682;51.660;19.338;2023-04-01T09:05:41;10.80;99.90
40952;DHT22;26682;51.660;19.338;2023-04-01T09:27:15;10.70;99.90
40952;DHT22;26682;51.660;19.338;2023-04-01T09:30:31;10.80;99.90
40952;DHT22;26682;51.660;19.338;2023-04-01T09:39:41;10.50;99.90
40952;DHT22;26682;51.660;19.338;2023-04-01T09:54:50;11.20;99.90
40952;DHT22;26682;51.660;19.338;2023-04-01T10:04:56;11.00;99.90
40952;DHT22;26682;51.660;19.338;2023-04-01T10:10:23;10.80;99.90
40952;DHT22;26682;51.660;19.338;2023-04-01T10:58:14;11.50;94.80
40952;DHT22;26682;51.660;19.338;2023-04-01T11:27:30;10.50;99.90
40952;DHT22;26682;51.660;19.338;2023-04-01T11:33:53;10.30;99.90
40952;DHT22;26682;51.660;19.338;2023-04-01T11:58:50;10.00;99.90
40952;DHT22;26682;51.660;19.338;2023-04-01T12:01:54;10.00;99.90
40952;DHT22;26682;51.660;19.338;2023-04-01T12:07:36;10.20;99.90
40952;DHT22;26682;51.660;19.338;2023-04-01T12:10:33;10.20;99.90
40952;DHT22;26682;51.660;19.338;2023-04-01T12:13:49;10.40;99.90
40952;DHT22;26682;51.660;19.338;2023-04-01T12:16:51;10.50;99.90
40952;DHT22;26682;51.660;19.338;2023-04-01T12:44:23;11.00;99.90
40952;DHT22;26682;51.660;19.338;2023-04-01T12:53:27;10.40;99.90
40952;DHT22;26682;51.660;19.338;2023-04-01T13:23:39;10.80;99.90
40952;DHT22;26682;51.660;19.338;2023-04-01T13:29:28;11.00;99.90
40952;DHT22;26682;51.660;19.338;2023-04-01T13:41:46;11.00;99.90
40952;DHT22;26682;51.660;19.338;2023-04-01T13:44:43;11.00;99.90
40952;DHT22;26682;51.660;19.338;2023-04-01T14:03:26;10.10;99.90
40952;DHT22;26682;51.660;19.338;2023-04-01T14:10:34;10.00;99.90
40952;DHT22;26682;51.660;19.338;2023-04-01T14:28:28;10.10;99.90
40952;DHT22;26682;51.660;19.338;2023-04-01T14:37:17;10.10;99.90
40952;DHT22;26682;51.660;19.338;2023-04-01T14:49:02;9.90;99.90
40952;DHT22;26682;51.660;19.338;2023-04-01T14:51:47;9.80;99.90
40952;DHT22;26682;51.660;19.338;2023-04-01T14:54:32;9.70;99.90
40952;DHT22;26682;51.660;19.338;2023-04-01T14:57:31;9.60;99.90
40952;DHT22;26682;51.660;19.338;2023-04-01T15:00:17;9.50;99.90
40952;DHT22;26682;51.660;19.338;2023-04-01T15:03:33;9.50;99.90
40952;DHT22;26682;51.660;19.338;2023-04-01T15:09:33;9.50;99.90
40952;DHT22;26682;51.660;19.338;2023-04-01T15:21:50;9.10;99.90
40952;DHT22;26682;51.660;19.338;2023-04-01T15:37:18;8.80;99.90
40952;DHT22;26682;51.660;19.338;2023-04-01T15:41:28;8.80;99.90
40952;DHT22;26682;51.660;19.338;2023-04-01T15:49:43;8.50;99.90
40952;DHT22;26682;51.660;19.338;2023-04-01T15:52:56;8.50;99.90
40952;DHT22;26682;51.660;19.338;2023-04-01T16:04:42;8.50;99.90
40952;DHT22;26682;51.660;19.338;2023-04-01T16:07:48;8.30;99.90
40952;DHT22;26682;51.660;19.338;2023-04-01T16:20:24;8.30;99.90
40952;DHT22;26682;51.660;19.338;2023-04-01T16:26:34;8.20;99.90
40952;DHT22;26682;51.660;19.338;2023-04-01T16:29:31;8.20;99.90
40952;DHT22;26682;51.660;19.338;2023-04-01T16:32:23;8.10;99.90
40952;DHT22;26682;51.660;19.338;2023-04-01T16:35:23;8.10;99.90
40952;DHT22;26682;51.660;19.338;2023-04-01T16:41:20;8.00;99.90
40952;DHT22;26682;51.660;19.338;2023-04-01T16:44:22;8.00;99.90
40952;DHT22;26682;51.660;19.338;2023-04-01T16:47:10;7.90;99.90
40952;DHT22;26682;51.660;19.338;2023-04-01T16:50:22;7.90;99.90
40952;DHT22;26682;51.660;19.338;2023-04-01T17:05:03;7.70;99.90
40952;DHT22;26682;51.660;19.338;2023-04-01T17:16:47;7.60;99.90
40952;DHT22;26682;51.660;19.338;2023-04-01T17:19:56;7.60;99.90
40952;DHT22;26682;51.660;19.338;2023-04-01T17:22:49;7.70;99.90
40952;DHT22;26682;51.660;19.338;2023-04-01T17:37:53;7.40;99.90
40952;DHT22;26682;51.660;19.338;2023-04-01T17:47:23;7.50;99.90
40952;DHT22;26682;51.660;19.338;2023-04-01T18:00:03;7.70;99.90
40952;DHT22;26682;51.660;19.338;2023-04-01T18:17:25;7.40;99.90
40952;DHT22;26682;51.660;19.338;2023-04-01T18:20:31;7.40;99.90
40952;DHT22;26682;51.660;19.338;2023-04-01T18:27:00;7.40;99.90
40952;DHT22;26682;51.660;19.338;2023-04-01T18:44:59;7.20;99.90
40952;DHT22;26682;51.660;19.338;2023-04-01T18:50:54;7.20;99.90
40952;DHT22;26682;51.660;19.338;2023-04-01T18:56:41;7.20;99.90
40952;DHT22;26682;51.660;19.338;2023-04-01T18:59:32;7.20;99.90
40952;DHT22;26682;51.660;19.338;2023-04-01T19:05:19;7.10;99.90
40952;DHT22;26682;51.660;19.338;2023-04-01T19:08:17;7.00;99.90
40952;DHT22;26682;51.660;19.338;2023-04-01T19:14:30;7.10;99.90
40952;DHT22;26682;51.660;19.338;2023-04-01T19:32:16;6.90;99.90
40952;DHT22;26682;51.660;19.338;2023-04-01T20:12:56;6.70;99.90
40952;DHT22;26682;51.660;19.338;2023-04-01T20:15:43;6.70;99.90
40952;DHT22;26682;51.660;19.338;2023-04-01T20:21:44;6.60;99.90
40952;DHT22;26682;51.660;19.338;2023-04-01T20:24:30;6.60;99.90
40952;DHT22;26682;51.660;19.338;2023-04-01T20:27:15;6.50;99.90
40952;DHT22;26682;51.660;19.338;2023-04-01T20:36:28;6.40;99.90
40952;DHT22;26682;51.660;19.338;2023-04-01T20:51:07;6.40;99.90
40952;DHT22;26682;51.660;19.338;2023-04-01T20:56:41;6.20;99.90
40952;DHT22;26682;51.660;19.338;2023-04-01T20:59:57;6.20;99.90
40952;DHT22;26682;51.660;19.338;2023-04-01T21:12:26;6.10;99.90
40952;DHT22;26682;51.660;19.338;2023-04-01T21:18:38;6.00;99.90
40952;DHT22;26682;51.660;19.338;2023-04-01T21:21:56;6.00;99.90
40952;DHT22;26682;51.660;19.338;2023-04-01T21:30:58;5.80;99.90
40952;DHT22;26682;51.660;19.338;2023-04-01T21:43:37;5.70;99.90
40952;DHT22;26682;51.660;19.338;2023-04-01T21:55:46;5.60;99.90
40952;DHT22;26682;51.660;19.338;2023-04-01T22:04:55;5.50;99.90
40952;DHT22;26682;51.660;19.338;2023-04-01T22:16:46;5.40;99.90
40952;DHT22;26682;51.660;19.338;2023-04-01T22:19:41;5.30;99.90
40952;DHT22;26682;51.660;19.338;2023-04-01T22:22:31;5.30;99.90
40952;DHT22;26682;51.660;19.338;2023-04-01T22:25:31;5.30;99.90
40952;DHT22;26682;51.660;19.338;2023-04-01T22:28:28;5.30;99.90
40952;DHT22;26682;51.660;19.338;2023-04-01T22:31:14;5.30;99.90
40952;DHT22;26682;51.660;19.338;2023-04-01T22:34:16;5.30;99.90
40952;DHT22;26682;51.660;19.338;2023-04-01T22:37:19;5.30;99.90
40952;DHT22;26682;51.660;19.338;2023-04-01T22:43:36;5.40;99.90
40952;DHT22;26682;51.660;19.338;2023-04-01T22:49:48;5.20;99.90
40952;DHT22;26682;51.660;19.338;2023-04-01T22:52:37;5.20;99.90
40952;DHT22;26682;51.660;19.338;2023-04-01T22:55:33;5.20;99.90
40952;DHT22;26682;51.660;19.338;2023-04-01T22:58:31;5.20;99.90
40952;DHT22;26682;51.660;19.338;2023-04-01T23:01:24;5.10;99.90
40952;DHT22;26682;51.660;19.338;2023-04-01T23:04:09;5.00;99.90
40952;DHT22;26682;51.660;19.338;2023-04-01T23:06:57;5.00;99.90
40952;DHT22;26682;51.660;19.338;2023-04-01T23:09:42;5.10;99.90
40952;DHT22;26682;51.660;19.338;2023-04-01T23:12:25;5.10;99.90
40952;DHT22;26682;51.660;19.338;2023-04-01T23:15:13;5.00;99.90
40952;DHT22;26682;51.660;19.338;2023-04-01T23:18:02;4.90;99.90
40952;DHT22;26682;51.660;19.338;2023-04-01T23:22:04;4.90;99.90
40952;DHT22;26682;51.660;19.338;2023-04-01T23:24:37;4.90;99.90
40952;DHT22;26682;51.660;19.338;2023-04-01T23:27:33;4.80;99.90
40952;DHT22;26682;51.660;19.338;2023-04-01T23:30:47;4.70;99.90
40952;DHT22;26682;51.660;19.338;2023-04-01T23:33:30;4.60;99.90
40952;DHT22;26682;51.660;19.338;2023-04-01T23:36:15;4.50;99.90
40952;DHT22;26682;51.660;19.338;2023-04-01T23:39:03;4.40;99.90
40952;DHT22;26682;51.660;19.338;2023-04-01T23:41:47;4.40;99.90
40952;DHT22;26682;51.660;19.338;2023-04-01T23:44:29;4.40;99.90
40952;DHT22;26682;51.660;19.338;2023-04-01T23:47:26;4.40;99.90
40952;DHT22;26682;51.660;19.338;2023-04-01T23:50:22;4.30;99.90
40952;DHT22;26682;51.660;19.338;2023-04-01T23:53:18;4.30;99.90
40952;DHT22;26682;51.660;19.338;2023-04-01T23:56:03;4.30;99.90
40952;DHT22;26682;51.660;19.338;2023-04-01T23:58:48;4.30;99.90
